Time;durP1;ratioP1;P1;durP2;ratioP2;P2;SDS_P1;SDS_P2;PMS_P1;PMS_P2;Temp;Humidity;BMP_temperature;BMP_pressure;BME280_temperature;BME280_humidity;BME280_pressure;Samples;Min_cycle;Max_cycle;Signal;HPM_P1;HPM_P2
2022/06/10 00:01:07;;;;;;;11.67;10.50;;;12.60;99.90;;;;;;5051746;28;20709;-65
2022/06/10 00:03:35;;;;;;;11.50;10.47;;;12.50;99.90;;;;;;5051491;28;20186;-65
2022/06/10 00:06:04;;;;;;;14.80;11.97;;;12.50;99.90;;;;;;5051795;28;20189;-65
2022/06/10 00:08:36;;;;;;;12.70;11.57;;;12.40;99.90;;;;;;5051640;28;20659;-64
2022/06/10 00:11:03;;;;;;;11.23;10.27;;;12.40;99.90;;;;;;5051864;28;20163;-65
2022/06/10 00:13:32;;;;;;;12.27;11.17;;;12.40;99.90;;;;;;5050586;28;20658;-65
2022/06/10 00:15:59;;;;;;;13.23;11.73;;;12.30;99.90;;;;;;5051877;28;20273;-64
2022/06/10 00:18:28;;;;;;;18.43;11.70;;;12.30;99.90;;;;;;5051407;28;20183;-65
2022/06/10 00:20:54;;;;;;;19.00;12.17;;;12.30;99.90;;;;;;5051670;28;20210;-65
2022/06/10 00:23:19;;;;;;;12.10;10.90;;;12.20;99.90;;;;;;5051292;28;20195;-64
2022/06/10 00:25:45;;;;;;;16.53;11.47;;;12.10;99.90;;;;;;5051226;28;20245;-65
2022/06/10 00:28:11;;;;;;;13.13;10.93;;;12.10;99.90;;;;;;5051350;28;20194;-64
2022/06/10 00:30:37;;;;;;;12.13;11.03;;;12.00;99.90;;;;;;5051632;28;20175;-65
2022/06/10 00:33:03;;;;;;;12.27;11.27;;;12.00;99.90;;;;;;5051166;28;20201;-64
2022/06/10 00:35:29;;;;;;;12.40;11.37;;;12.00;99.90;;;;;;5051189;28;20707;-64
2022/06/10 00:37:55;;;;;;;14.63;11.73;;;12.00;99.90;;;;;;5050449;28;20171;-64
2022/06/10 00:40:35;;;;;;;12.40;11.40;;;12.00;99.90;;;;;;5051352;28;20192;-63
2022/06/10 00:43:01;;;;;;;13.30;10.90;;;12.00;99.90;;;;;;5051064;28;20186;-64
2022/06/10 00:45:51;;;;;;;13.17;11.23;;;12.00;99.90;;;;;;5051140;28;20260;-64
2022/06/10 00:48:28;;;;;;;12.63;11.67;;;11.90;99.90;;;;;;5050713;28;20227;-64
2022/06/10 00:50:55;;;;;;;11.83;10.63;;;11.90;99.90;;;;;;5051300;28;20171;-64
2022/06/10 00:53:26;;;;;;;11.23;10.23;;;11.80;99.90;;;;;;5050717;28;20174;-64
2022/06/10 00:55:54;;;;;;;12.90;11.43;;;11.80;99.90;;;;;;5051259;28;20227;-64
2022/06/10 00:58:48;;;;;;;12.73;11.43;;;11.80;99.90;;;;;;5050958;28;20284;-64
2022/06/10 01:01:15;;;;;;;13.60;11.47;;;11.60;99.90;;;;;;5045379;28;20194;-64
2022/06/10 01:03:41;;;;;;;14.47;11.63;;;11.50;99.90;;;;;;5050633;28;20320;-65
2022/06/10 01:06:08;;;;;;;13.10;11.80;;;11.50;99.90;;;;;;5049810;28;20222;-64
2022/06/10 01:08:34;;;;;;;14.57;12.00;;;11.50;99.90;;;;;;5050760;28;20756;-64
2022/06/10 01:11:22;;;;;;;13.13;11.90;;;11.50;99.90;;;;;;5051144;28;20292;-64
2022/06/10 01:14:09;;;;;;;14.57;11.97;;;11.40;99.90;;;;;;5050736;28;20646;-64
2022/06/10 01:17:03;;;;;;;14.07;11.73;;;11.40;99.90;;;;;;5050740;28;20607;-64
2022/06/10 01:19:28;;;;;;;12.93;11.83;;;11.40;99.90;;;;;;5050757;28;20179;-65
2022/06/10 01:22:31;;;;;;;17.23;12.20;;;11.40;99.90;;;;;;5051090;28;20182;-64
2022/06/10 01:25:31;;;;;;;13.53;12.30;;;11.40;99.90;;;;;;5053524;28;20249;-64
2022/06/10 01:28:31;;;;;;;12.83;11.67;;;11.40;99.90;;;;;;5049182;28;20202;-63
2022/06/10 01:31:38;;;;;;;13.10;11.80;;;11.30;99.90;;;;;;5054540;28;20175;-65
2022/06/10 01:34:33;;;;;;;12.50;11.37;;;11.30;99.90;;;;;;5054476;28;20179;-64
2022/06/10 01:37:18;;;;;;;12.67;11.37;;;11.30;99.90;;;;;;5054675;28;20285;-64
2022/06/10 01:40:06;;;;;;;14.30;11.33;;;11.30;99.90;;;;;;5054576;28;20186;-64
2022/06/10 01:42:43;;;;;;;17.07;11.67;;;11.30;99.90;;;;;;5024751;28;20198;-64
2022/06/10 01:45:31;;;;;;;13.37;12.07;;;11.20;99.90;;;;;;5052651;28;20213;-64
2022/06/10 01:48:09;;;;;;;13.03;11.50;;;11.20;99.90;;;;;;5054358;28;20680;-64
2022/06/10 01:50:50;;;;;;;12.47;11.17;;;11.20;99.90;;;;;;5054363;28;20182;-64
2022/06/10 01:53:26;;;;;;;15.37;11.67;;;11.20;99.90;;;;;;5054305;28;20175;-64
2022/06/10 01:56:13;;;;;;;12.57;11.50;;;11.10;99.90;;;;;;5054512;28;20237;-64
2022/06/10 01:58:47;;;;;;;13.33;11.83;;;11.10;99.90;;;;;;5054246;28;20190;-64
2022/06/10 02:01:20;;;;;;;19.10;12.00;;;11.10;99.90;;;;;;5054246;28;20257;-64
2022/06/10 02:04:09;;;;;;;12.73;11.53;;;11.10;99.90;;;;;;5053960;28;20174;-64
2022/06/10 02:06:49;;;;;;;16.70;12.40;;;11.10;99.90;;;;;;5052427;28;20210;-64
2022/06/10 02:09:21;;;;;;;15.73;12.40;;;11.10;99.90;;;;;;5053943;28;20210;-64
2022/06/10 02:11:54;;;;;;;14.00;12.57;;;11.10;99.90;;;;;;5054204;28;20263;-64
2022/06/10 02:14:26;;;;;;;15.07;11.63;;;11.10;99.90;;;;;;5053515;28;20596;-64
2022/06/10 02:16:53;;;;;;;15.83;12.07;;;11.10;99.90;;;;;;5052802;28;20202;-64
2022/06/10 02:19:24;;;;;;;14.23;12.67;;;11.00;99.90;;;;;;5053987;28;20203;-64
2022/06/10 02:21:57;;;;;;;17.27;12.37;;;11.00;99.90;;;;;;5054831;28;20481;-66
2022/06/10 02:24:25;;;;;;;16.53;12.63;;;11.00;99.90;;;;;;5054797;28;20214;-66
2022/06/10 02:26:54;;;;;;;18.57;12.83;;;11.00;99.90;;;;;;5054403;28;20723;-65
2022/06/10 02:29:34;;;;;;;14.17;12.87;;;11.00;99.90;;;;;;5053717;28;20221;-66
2022/06/10 02:32:01;;;;;;;15.90;12.70;;;11.00;99.90;;;;;;5053279;28;20183;-67
2022/06/10 02:34:28;;;;;;;14.03;12.73;;;11.00;99.90;;;;;;5053283;28;20210;-67
2022/06/10 02:36:59;;;;;;;15.47;12.90;;;10.90;99.90;;;;;;5053784;28;20279;-67
2022/06/10 02:39:44;;;;;;;13.57;12.23;;;10.90;99.90;;;;;;5054703;28;20712;-68
2022/06/10 02:42:10;;;;;;;14.17;12.70;;;10.90;99.90;;;;;;5054243;28;20186;-65
2022/06/10 02:44:41;;;;;;;14.93;12.60;;;10.80;99.90;;;;;;5052964;28;20186;-67
2022/06/10 02:47:19;;;;;;;15.63;12.47;;;10.80;99.90;;;;;;5053940;28;20673;-66
2022/06/10 02:49:44;;;;;;;14.20;12.00;;;10.80;99.90;;;;;;5054736;28;20210;-66
2022/06/10 02:52:14;;;;;;;13.63;12.23;;;10.70;99.90;;;;;;5054425;28;20171;-68
2022/06/10 02:54:41;;;;;;;13.70;12.03;;;10.70;99.90;;;;;;5054386;28;20171;-66
2022/06/10 02:57:16;;;;;;;16.40;12.73;;;10.70;99.90;;;;;;5054065;28;20569;-68
2022/06/10 03:02:56;;;;;;;16.10;12.93;;;10.60;99.90;;;;;;5054669;28;20194;-66
2022/06/10 03:06:05;;;;;;;14.20;12.80;;;10.50;99.90;;;;;;5054032;28;20625;-68
2022/06/10 03:08:40;;;;;;;15.73;12.40;;;10.50;99.90;;;;;;5038255;28;20233;-65
2022/06/10 03:11:38;;;;;;;17.30;13.57;;;10.50;99.90;;;;;;5054038;28;20171;-66
2022/06/10 03:14:17;;;;;;;18.23;13.07;;;10.50;99.90;;;;;;5054205;28;20179;-67
2022/06/10 03:17:01;;;;;;;16.53;14.57;;;10.40;99.90;;;;;;5054468;28;20195;-68
2022/06/10 03:19:50;;;;;;;14.97;13.60;;;10.50;99.90;;;;;;5054309;28;20261;-69
2022/06/10 03:22:23;;;;;;;15.50;13.60;;;10.50;99.90;;;;;;5054133;28;20202;-69
2022/06/10 03:24:55;;;;;;;19.03;14.57;;;10.50;99.90;;;;;;5053382;28;20592;-68
2022/06/10 03:27:26;;;;;;;15.33;13.93;;;10.50;99.90;;;;;;5053990;28;20605;-69
2022/06/10 03:30:08;;;;;;;16.87;14.70;;;10.50;99.90;;;;;;5053828;28;20214;-67
2022/06/10 03:32:43;;;;;;;18.40;15.23;;;10.60;99.90;;;;;;5053738;28;20171;-65
2022/06/10 03:35:24;;;;;;;16.67;14.83;;;10.70;99.90;;;;;;5034029;28;20206;-68
2022/06/10 03:37:50;;;;;;;18.27;14.77;;;10.70;99.90;;;;;;5042717;28;20186;-66
2022/06/10 03:40:24;;;;;;;17.83;14.43;;;10.80;99.90;;;;;;5054283;28;20206;-68
2022/06/10 03:42:53;;;;;;;17.60;15.60;;;10.90;99.90;;;;;;5053982;28;20182;-68
2022/06/10 03:45:27;;;;;;;19.27;14.20;;;10.90;99.90;;;;;;5053752;28;20221;-66
2022/06/10 03:47:52;;;;;;;16.13;14.33;;;10.90;99.90;;;;;;5050871;28;20600;-63
2022/06/10 03:50:23;;;;;;;18.23;16.37;;;11.00;99.90;;;;;;5052119;28;20187;-64
2022/06/10 03:52:49;;;;;;;18.03;14.23;;;11.10;99.90;;;;;;5052171;28;20296;-63
2022/06/10 03:55:18;;;;;;;17.57;15.50;;;11.10;99.90;;;;;;5051778;28;20278;-64
2022/06/10 03:57:45;;;;;;;20.43;15.23;;;11.20;99.90;;;;;;5052130;28;20207;-63
2022/06/10 04:00:18;;;;;;;17.07;15.27;;;11.20;99.90;;;;;;5052254;28;20550;-64
2022/06/10 04:02:43;;;;;;;17.20;14.70;;;11.20;99.90;;;;;;5051989;28;20178;-63
2022/06/10 04:05:10;;;;;;;16.50;14.90;;;11.30;99.90;;;;;;5051488;28;20300;-64
2022/06/10 04:07:36;;;;;;;18.27;14.23;;;11.40;99.90;;;;;;5052220;28;20194;-63
2022/06/10 04:10:03;;;;;;;18.70;14.63;;;11.40;99.90;;;;;;5050579;28;20233;-64
2022/06/10 04:12:28;;;;;;;17.97;15.33;;;11.40;99.90;;;;;;5051910;28;20224;-64
2022/06/10 04:14:54;;;;;;;19.50;15.13;;;11.50;99.90;;;;;;5051545;28;20167;-64
2022/06/10 04:17:19;;;;;;;21.33;16.20;;;11.60;99.90;;;;;;5051841;28;20260;-64
2022/06/10 04:19:45;;;;;;;24.03;16.33;;;11.70;99.90;;;;;;5052106;28;20167;-64
2022/06/10 04:22:11;;;;;;;18.63;14.63;;;11.90;99.90;;;;;;5051480;28;20186;-64
2022/06/10 04:24:37;;;;;;;20.10;15.30;;;12.10;99.90;;;;;;5051583;28;20650;-64
2022/06/10 04:27:03;;;;;;;21.10;15.00;;;12.40;99.90;;;;;;5088000;22;20226;-67
2022/06/10 04:29:29;;;;;;;16.67;13.73;;;12.60;99.90;;;;;;5071893;28;20209;-67
2022/06/10 04:31:54;;;;;;;14.17;12.60;;;12.80;99.90;;;;;;5071407;28;20258;-67
2022/06/10 04:34:20;;;;;;;14.60;13.10;;;12.90;99.90;;;;;;5071365;28;20182;-67
2022/06/10 04:36:46;;;;;;;13.63;12.37;;;13.10;99.90;;;;;;5062402;28;20253;-67
2022/06/10 04:39:12;;;;;;;15.67;11.70;;;13.40;99.90;;;;;;5051454;28;20223;-67
2022/06/10 04:41:39;;;;;;;12.27;10.80;;;13.50;99.90;;;;;;5051548;28;20171;-67
2022/06/10 04:44:04;;;;;;;12.63;9.73;;;13.70;99.90;;;;;;5051258;28;20171;-67
2022/06/10 04:46:34;;;;;;;11.27;10.47;;;13.90;99.90;;;;;;5051294;28;20574;-66
2022/06/10 04:49:00;;;;;;;10.80;9.80;;;14.30;99.90;;;;;;5051319;28;20576;-67
2022/06/10 04:51:26;;;;;;;10.60;8.50;;;14.70;99.90;;;;;;5051371;28;20593;-67
2022/06/10 04:53:52;;;;;;;10.70;7.73;;;15.00;99.90;;;;;;5051233;28;20297;-67
2022/06/10 04:56:17;;;;;;;8.60;7.80;;;15.30;99.90;;;;;;5051102;28;20198;-66
2022/06/10 04:58:44;;;;;;;10.23;8.00;;;15.70;99.90;;;;;;5050863;28;20265;-67
2022/06/10 05:01:10;;;;;;;9.60;7.57;;;16.10;99.90;;;;;;5051693;28;20179;-67
2022/06/10 05:03:36;;;;;;;11.13;6.87;;;16.50;99.90;;;;;;5050949;28;20170;-67
2022/06/10 05:06:02;;;;;;;7.10;6.40;;;16.90;99.90;;;;;;5051316;28;20277;-67
2022/06/10 05:08:27;;;;;;;7.07;6.23;;;17.30;99.90;;;;;;5050913;28;20201;-67
2022/06/10 05:10:53;;;;;;;7.53;6.07;;;17.70;99.90;;;;;;5051288;28;20179;-67
2022/06/10 05:13:20;;;;;;;7.50;6.57;;;18.00;99.90;;;;;;5051145;28;20240;-67
2022/06/10 05:15:47;;;;;;;5.87;5.33;;;18.40;99.90;;;;;;5050782;28;20664;-67
2022/06/10 05:18:15;;;;;;;8.70;6.03;;;18.70;99.90;;;;;;5051275;28;20201;-67
2022/06/10 05:20:42;;;;;;;8.20;5.80;;;19.00;99.90;;;;;;5050828;28;20610;-67
2022/06/10 05:23:10;;;;;;;10.63;5.57;;;19.20;99.90;;;;;;5051043;28;20255;-66
2022/06/10 05:25:37;;;;;;;7.63;6.13;;;19.10;99.90;;;;;;5050613;28;20612;-67
2022/06/10 05:28:03;;;;;;;7.77;6.97;;;19.10;99.90;;;;;;5050955;28;20230;-67
2022/06/10 05:30:30;;;;;;;9.43;5.70;;;18.80;99.90;;;;;;5050745;28;20214;-68
2022/06/10 05:32:57;;;;;;;12.20;6.07;;;18.50;99.90;;;;;;5051108;28;20642;-67
2022/06/10 05:35:23;;;;;;;8.20;6.13;;;18.40;99.90;;;;;;5050508;28;20371;-67
2022/06/10 05:37:49;;;;;;;6.67;5.80;;;18.20;99.90;;;;;;5051117;28;20191;-67
2022/06/10 05:40:16;;;;;;;7.17;6.03;;;17.90;99.90;;;;;;5050728;28;20174;-67
2022/06/10 05:42:43;;;;;;;7.77;5.50;;;17.90;99.90;;;;;;5050786;28;20186;-66
2022/06/10 05:45:11;;;;;;;6.60;5.97;;;17.80;99.90;;;;;;5050622;28;20171;-67
2022/06/10 05:47:37;;;;;;;10.10;6.47;;;17.80;99.90;;;;;;5050710;28;20648;-67
2022/06/10 05:50:13;;;;;;;7.57;5.53;;;17.70;99.90;;;;;;5050907;28;20206;-67
2022/06/10 05:52:40;;;;;;;6.30;5.80;;;17.60;99.90;;;;;;5050822;28;20178;-67
2022/06/10 05:55:10;;;;;;;7.23;6.53;;;17.50;99.90;;;;;;5050384;28;20242;-66
2022/06/10 05:57:37;;;;;;;8.30;6.20;;;17.50;99.90;;;;;;5044386;28;20248;-66
2022/06/10 06:00:05;;;;;;;7.03;6.33;;;17.40;99.90;;;;;;5051099;28;20320;-67
2022/06/10 06:02:31;;;;;;;8.60;6.60;;;17.40;99.90;;;;;;5050422;28;20183;-67
2022/06/10 06:04:58;;;;;;;8.27;6.47;;;17.40;99.90;;;;;;5050451;28;20244;-66
2022/06/10 06:07:27;;;;;;;7.43;6.93;;;17.30;99.90;;;;;;5050089;28;20685;-67
2022/06/10 06:09:53;;;;;;;7.40;6.90;;;17.30;99.90;;;;;;5049431;28;20217;-67
2022/06/10 06:12:21;;;;;;;7.17;6.57;;;17.20;99.90;;;;;;5053791;28;20630;-67
2022/06/10 06:14:46;;;;;;;8.27;7.07;;;17.30;99.90;;;;;;5054153;28;20202;-66
2022/06/10 06:17:14;;;;;;;7.90;7.27;;;17.30;99.90;;;;;;5052441;28;20218;-67
2022/06/10 06:19:41;;;;;;;6.87;6.10;;;17.30;99.90;;;;;;5054250;28;20183;-67
2022/06/10 06:22:07;;;;;;;6.33;5.83;;;17.40;99.90;;;;;;5054315;28;20179;-66
2022/06/10 06:24:34;;;;;;;6.73;6.20;;;17.50;99.90;;;;;;5051014;28;20218;-64
2022/06/10 06:27:01;;;;;;;9.93;6.70;;;17.50;99.90;;;;;;5052894;28;20573;-67
2022/06/10 06:29:27;;;;;;;7.13;6.53;;;17.50;99.90;;;;;;5051897;28;20207;-67
2022/06/10 06:31:53;;;;;;;9.50;8.60;;;17.50;99.90;;;;;;5052744;28;20182;-67
2022/06/10 06:34:23;;;;;;;7.17;6.27;;;17.60;99.90;;;;;;5052867;28;20179;-67
2022/06/10 06:36:50;;;;;;;10.37;5.80;;;17.70;99.90;;;;;;5052595;28;20236;-67
2022/06/10 06:39:18;;;;;;;6.20;5.80;;;17.90;99.90;;;;;;5053200;28;20174;-67
2022/06/10 06:41:45;;;;;;;6.77;6.10;;;18.00;99.90;;;;;;5053697;28;20213;-67
2022/06/10 06:44:11;;;;;;;8.73;6.20;;;18.10;99.90;;;;;;5052719;28;20182;-68
2022/06/10 06:46:38;;;;;;;6.73;5.53;;;18.10;99.90;;;;;;5053550;28;20260;-68
2022/06/10 06:49:08;;;;;;;6.00;5.43;;;18.10;99.90;;;;;;5052597;28;20283;-66
2022/06/10 06:51:34;;;;;;;6.80;6.27;;;18.10;99.90;;;;;;5053409;28;20174;-67
2022/06/10 06:53:59;;;;;;;7.93;7.13;;;18.10;99.90;;;;;;5053140;28;20174;-66
2022/06/10 06:56:29;;;;;;;6.80;6.03;;;18.00;99.90;;;;;;5052938;28;20686;-67
2022/06/10 06:58:55;;;;;;;8.87;6.50;;;18.00;99.90;;;;;;5053487;28;20183;-67
2022/06/10 07:01:21;;;;;;;6.20;5.67;;;18.10;99.90;;;;;;5051540;28;20238;-67
2022/06/10 07:03:47;;;;;;;6.80;6.10;;;18.20;99.90;;;;;;5051937;28;20179;-66
2022/06/10 07:06:12;;;;;;;12.03;5.73;;;18.20;99.90;;;;;;5052614;28;20623;-66
2022/06/10 07:08:38;;;;;;;8.23;5.40;;;18.20;99.90;;;;;;5051809;28;20289;-67
2022/06/10 07:11:06;;;;;;;5.77;5.30;;;18.20;99.90;;;;;;5051224;28;20266;-66
2022/06/10 07:13:32;;;;;;;5.67;5.10;;;18.20;99.90;;;;;;5052689;28;20167;-67
2022/06/10 07:16:00;;;;;;;6.33;5.07;;;18.30;99.90;;;;;;5052607;28;20225;-66
2022/06/10 07:18:27;;;;;;;6.57;5.50;;;18.40;99.90;;;;;;5052733;28;20178;-66
2022/06/10 07:20:52;;;;;;;5.40;5.00;;;18.60;99.90;;;;;;5052676;28;20175;-67
2022/06/10 07:23:19;;;;;;;5.50;4.83;;;18.90;99.90;;;;;;5051241;28;20236;-67
2022/06/10 07:25:45;;;;;;;7.73;5.50;;;19.20;99.90;;;;;;5052407;28;20216;-68
2022/06/10 07:28:12;;;;;;;6.13;5.33;;;19.50;99.90;;;;;;5048368;28;20183;-66
2022/06/10 07:30:39;;;;;;;6.53;5.97;;;20.00;99.90;;;;;;5052886;28;20171;-68
2022/06/10 07:33:05;;;;;;;6.70;6.20;;;20.50;99.90;;;;;;5052081;28;20179;-67
2022/06/10 07:35:31;;;;;;;11.53;10.47;;;20.80;99.90;;;;;;5052174;28;20320;-67
2022/06/10 07:37:58;;;;;;;9.17;6.77;;;21.10;99.90;;;;;;5052337;28;20214;-66
2022/06/10 07:43:18;;;;;;;6.33;5.73;;;21.40;99.90;;;;;;5052127;28;20546;-67
2022/06/10 07:45:44;;;;;;;5.90;5.10;;;21.60;99.90;;;;;;5051908;28;20646;-67
2022/06/10 07:48:13;;;;;;;6.70;4.40;;;21.80;99.90;;;;;;5052202;28;20171;-67
2022/06/10 07:50:41;;;;;;;7.35;4.60;;;22.00;99.90;;;;;;5051560;28;20255;-67
2022/06/10 07:53:07;;;;;;;4.40;4.00;;;22.10;99.90;;;;;;5051959;28;20228;-67
2022/06/10 07:55:34;;;;;;;6.30;4.68;;;22.40;99.90;;;;;;5051749;28;20518;-67
2022/06/10 07:57:59;;;;;;;6.93;4.43;;;22.50;99.90;;;;;;5052272;28;20190;-67
2022/06/10 08:00:26;;;;;;;6.47;4.53;;;22.80;99.90;;;;;;5049237;28;20193;-68
2022/06/10 08:02:52;;;;;;;6.05;3.95;;;23.10;99.90;;;;;;5052422;28;20171;-67
2022/06/10 08:05:19;;;;;;;6.82;4.57;;;23.40;99.90;;;;;;5051138;28;20228;-67
2022/06/10 08:07:45;;;;;;;6.88;3.83;;;24.00;99.90;;;;;;5052060;28;20270;-67
2022/06/10 08:10:21;;;;;;;8.30;4.47;;;24.50;99.90;;;;;;5051611;28;20293;-66
2022/06/10 08:12:47;;;;;;;4.55;3.63;;;24.90;99.90;;;;;;5051435;28;20171;-64
2022/06/10 08:15:18;;;;;;;4.80;3.83;;;25.10;99.90;;;;;;5047564;28;20266;-65
2022/06/10 08:17:43;;;;;;;4.32;3.92;;;25.00;99.90;;;;;;5031018;28;20188;-65
2022/06/10 08:23:17;;;;;;;5.22;3.50;;;24.50;99.90;;;;;;5031628;28;20179;-64
2022/06/10 08:25:43;;;;;;;5.32;3.70;;;24.40;99.90;;;;;;5030601;28;20583;-66
2022/06/10 08:28:09;;;;;;;4.32;3.92;;;24.40;99.90;;;;;;5031668;28;20237;-65
2022/06/10 08:30:35;;;;;;;4.80;4.15;;;25.00;99.90;;;;;;5031890;28;20214;-64
2022/06/10 08:33:04;;;;;;;4.45;3.55;;;25.40;99.90;;;;;;5036909;28;20637;-65
2022/06/10 08:35:31;;;;;;;7.70;3.90;;;25.10;99.90;;;;;;5051246;28;20182;-65
2022/06/10 08:37:57;;;;;;;4.85;3.47;;;25.10;99.90;;;;;;5051512;28;20218;-65
2022/06/10 08:40:44;;;;;;;8.10;4.22;;;25.50;99.90;;;;;;5051427;28;20646;-65
2022/06/10 08:43:37;;;;;;;4.03;3.47;;;26.00;99.90;;;;;;5051245;28;20175;-65
2022/06/10 08:46:51;;;;;;;7.10;4.35;;;26.00;99.90;;;;;;5050134;28;20210;-63
2022/06/10 08:49:50;;;;;;;6.10;4.38;;;26.30;99.90;;;;;;5028815;28;20207;-65
2022/06/10 08:52:35;;;;;;;5.38;3.95;;;26.40;99.90;;;;;;5029119;28;20210;-65
2022/06/10 08:55:16;;;;;;;5.90;4.30;;;26.10;99.90;;;;;;5048461;28;20214;-65
2022/06/10 08:57:45;;;;;;;4.22;3.83;;;25.50;99.90;;;;;;5051267;28;20186;-64
2022/06/10 09:00:19;;;;;;;10.93;4.32;;;24.90;99.90;;;;;;5051355;28;20224;-63
2022/06/10 09:03:21;;;;;;;3.78;3.42;;;24.40;99.90;;;;;;5051533;28;20177;-64
2022/06/10 09:05:51;;;;;;;4.80;3.70;;;24.20;99.90;;;;;;5048442;28;20615;-64
2022/06/10 09:08:22;;;;;;;5.95;4.63;;;23.90;99.90;;;;;;5051399;28;20202;-64
2022/06/10 09:11:11;;;;;;;4.20;3.80;;;23.70;99.90;;;;;;5051325;28;20249;-64
2022/06/10 09:13:51;;;;;;;5.30;4.18;;;23.70;99.90;;;;;;5051281;28;20665;-66
2022/06/10 09:16:25;;;;;;;4.32;3.92;;;23.30;99.90;;;;;;5050964;28;20229;-68
2022/06/10 09:19:30;;;;;;;6.03;4.07;;;22.80;99.90;;;;;;5051097;28;20163;-67
2022/06/10 09:22:10;;;;;;;5.50;3.70;;;22.60;99.90;;;;;;5051216;28;20182;-67
2022/06/10 09:25:08;;;;;;;6.55;4.35;;;22.50;99.90;;;;;;5050807;28;20171;-66
2022/06/10 09:27:36;;;;;;;4.22;3.83;;;22.80;99.90;;;;;;5050968;28;20234;-68
2022/06/10 09:30:04;;;;;;;6.95;3.90;;;23.00;99.90;;;;;;5049672;28;20228;-68
2022/06/10 09:32:37;;;;;;;6.55;3.85;;;23.40;99.90;;;;;;5049091;28;20190;-66
2022/06/10 09:35:34;;;;;;;5.07;3.80;;;23.80;99.90;;;;;;5044806;28;20258;-67
2022/06/10 09:38:40;;;;;;;4.30;3.22;;;23.90;99.90;;;;;;5040272;28;20195;-66
2022/06/10 09:41:06;;;;;;;7.45;3.80;;;24.00;99.90;;;;;;4989010;28;20259;-66
2022/06/10 09:43:58;;;;;;;4.03;3.65;;;24.10;99.90;;;;;;5037429;28;20183;-66
2022/06/10 09:46:44;;;;;;;5.18;3.63;;;24.10;99.90;;;;;;5054994;28;20281;-66
2022/06/10 09:50:03;;;;;;;4.88;3.83;;;24.00;99.90;;;;;;5053046;28;20705;-67
2022/06/10 09:52:45;;;;;;;4.55;4.18;;;24.00;99.90;;;;;;5051933;28;20187;-68
2022/06/10 09:55:45;;;;;;;4.20;3.40;;;24.10;99.90;;;;;;5054079;28;20183;-67
2022/06/10 09:58:33;;;;;;;6.80;4.00;;;24.20;99.90;;;;;;5054405;28;20669;-64
2022/06/10 10:01:30;;;;;;;4.97;3.75;;;24.30;99.90;;;;;;5053364;28;20175;-65
2022/06/10 10:04:47;;;;;;;5.40;3.88;;;24.20;99.90;;;;;;5052493;28;20179;-65
2022/06/10 10:07:55;;;;;;;6.65;4.00;;;24.30;99.90;;;;;;4991119;28;20201;-64
2022/06/10 10:10:47;;;;;;;3.90;3.50;;;24.40;99.90;;;;;;5048799;28;20217;-64
2022/06/10 10:13:57;;;;;;;4.03;3.60;;;24.50;99.90;;;;;;5053887;28;20261;-63
2022/06/10 10:16:42;;;;;;;4.85;3.60;;;24.40;99.90;;;;;;5024094;28;20207;-68
2022/06/10 10:19:21;;;;;;;5.03;3.95;;;24.30;99.90;;;;;;5052529;28;20170;-67
2022/06/10 10:22:41;;;;;;;4.95;3.78;;;23.90;99.90;;;;;;5054237;28;20171;-68
2022/06/10 10:25:15;;;;;;;3.40;3.15;;;23.90;99.90;;;;;;4991407;28;20718;-65
2022/06/10 10:27:41;;;;;;;4.03;3.22;;;24.30;99.90;;;;;;5084859;22;20775;-65
2022/06/10 10:30:23;;;;;;;3.47;3.28;;;24.50;99.90;;;;;;5073656;28;20288;-65
2022/06/10 10:32:57;;;;;;;5.75;3.65;;;24.80;99.90;;;;;;5073582;28;20201;-65
2022/06/10 10:35:36;;;;;;;3.70;3.40;;;24.80;99.90;;;;;;5072886;28;20186;-65
2022/06/10 10:38:06;;;;;;;3.83;3.42;;;25.00;99.90;;;;;;5057660;28;20225;-65
2022/06/10 10:40:40;;;;;;;3.90;3.50;;;25.20;99.90;;;;;;5073920;28;20683;-64
2022/06/10 10:43:14;;;;;;;4.45;3.38;;;25.40;99.90;;;;;;5054921;28;20236;-66
2022/06/10 10:45:59;;;;;;;4.18;3.45;;;25.30;99.90;;;;;;5062595;28;20182;-65
2022/06/10 10:48:44;;;;;;;3.53;3.33;;;25.60;99.90;;;;;;5050201;28;20183;-64
2022/06/10 10:51:09;;;;;;;4.28;3.60;;;25.70;99.90;;;;;;5033446;28;20397;-65
2022/06/10 10:53:40;;;;;;;4.43;3.22;;;26.20;99.90;;;;;;5048766;28;20175;-66
2022/06/10 10:56:07;;;;;;;6.70;3.40;;;26.70;99.90;;;;;;5057073;28;20249;-66
2022/06/10 10:58:55;;;;;;;3.92;3.60;;;27.00;99.90;;;;;;5073718;28;20265;-65
2022/06/10 11:01:46;;;;;;;4.78;3.38;;;26.90;99.90;;;;;;5042597;28;20219;-65
2022/06/10 11:04:29;;;;;;;3.70;3.40;;;26.80;99.90;;;;;;5070032;28;20186;-65
2022/06/10 11:06:58;;;;;;;4.72;3.50;;;26.80;99.90;;;;;;5054421;28;20344;-65
2022/06/10 11:09:26;;;;;;;3.38;3.15;;;27.10;99.90;;;;;;5062938;28;20210;-66
2022/06/10 11:11:53;;;;;;;5.22;3.45;;;27.30;99.90;;;;;;5066266;28;20534;-66
2022/06/10 11:14:21;;;;;;;5.45;3.75;;;27.30;99.90;;;;;;5054025;28;20214;-66
2022/06/10 11:17:14;;;;;;;4.30;3.25;;;27.60;99.90;;;;;;5071864;28;20543;-66
2022/06/10 11:19:56;;;;;;;3.40;3.10;;;27.60;99.90;;;;;;5061551;28;20183;-66
2022/06/10 11:22:44;;;;;;;3.30;3.00;;;27.70;99.90;;;;;;5064035;28;20538;-65
2022/06/10 11:25:14;;;;;;;4.03;3.22;;;28.10;99.90;;;;;;5066764;28;20224;-66
2022/06/10 11:27:47;;;;;;;3.22;2.80;;;28.40;99.90;;;;;;5053101;28;20272;-66
2022/06/10 11:30:19;;;;;;;3.50;3.20;;;28.30;99.90;;;;;;5058594;28;20634;-66
2022/06/10 11:32:59;;;;;;;3.55;3.25;;;28.40;99.90;;;;;;5072888;28;20185;-65
2022/06/10 11:35:31;;;;;;;3.65;3.42;;;28.40;99.90;;;;;;5060469;28;20188;-64
2022/06/10 11:38:21;;;;;;;3.70;3.05;;;28.50;99.90;;;;;;5053891;28;20199;-66
2022/06/10 11:40:46;;;;;;;3.65;3.15;;;28.60;99.90;;;;;;5032954;28;20168;-66
2022/06/10 11:43:18;;;;;;;3.78;3.50;;;28.50;99.90;;;;;;5065341;28;20243;-64
2022/06/10 11:46:11;;;;;;;5.50;3.15;;;28.30;99.90;;;;;;5053633;28;20174;-66
2022/06/10 11:48:59;;;;;;;4.43;3.55;;;28.00;99.90;;;;;;5038076;28;20207;-65
2022/06/10 11:51:38;;;;;;;4.10;3.40;;;27.70;99.90;;;;;;5069549;28;20182;-66
2022/06/10 11:54:18;;;;;;;5.85;3.58;;;27.60;99.90;;;;;;5062378;28;20307;-66
2022/06/10 12:00:02;;;;;;;4.03;3.63;;;27.90;99.90;;;;;;5063960;28;20594;-66
2022/06/10 12:02:49;;;;;;;3.42;3.22;;;28.50;99.90;;;;;;5058292;28;20190;-66
2022/06/10 12:05:31;;;;;;;3.58;3.05;;;28.60;99.90;;;;;;5064694;28;20692;-65
2022/06/10 12:08:21;;;;;;;8.23;3.47;;;28.30;99.90;;;;;;5070011;28;20240;-66
2022/06/10 12:10:56;;;;;;;4.90;3.35;;;27.90;99.90;;;;;;5055194;28;20186;-66
2022/06/10 12:13:24;;;;;;;4.47;3.47;;;27.90;99.90;;;;;;5051516;28;20170;-66
2022/06/10 12:15:56;;;;;;;3.63;3.33;;;28.00;99.90;;;;;;5052018;28;20178;-66
2022/06/10 12:18:26;;;;;;;4.78;3.22;;;28.00;99.90;;;;;;5051857;28;20262;-65
2022/06/10 12:21:19;;;;;;;4.88;3.45;;;28.00;99.90;;;;;;5052000;28;20284;-67
2022/06/10 12:23:47;;;;;;;4.78;3.20;;;28.00;99.90;;;;;;5051418;28;20186;-65
2022/06/10 12:26:34;;;;;;;5.63;3.22;;;27.90;99.90;;;;;;5050891;28;20709;-65
2022/06/10 12:29:13;;;;;;;12.20;3.75;;;27.70;99.90;;;;;;5051825;28;20202;-66
2022/06/10 12:31:56;;;;;;;3.78;3.40;;;28.00;99.90;;;;;;5051847;28;20165;-65
2022/06/10 12:34:27;;;;;;;4.63;3.28;;;28.00;99.90;;;;;;5051589;28;20175;-65
2022/06/10 12:37:00;;;;;;;4.90;3.28;;;28.10;99.90;;;;;;5051879;28;20195;-64
2022/06/10 12:39:35;;;;;;;3.85;3.45;;;27.90;99.90;;;;;;5051646;28;20182;-65
2022/06/10 12:42:22;;;;;;;5.28;3.40;;;27.60;99.90;;;;;;5051759;28;20170;-65
2022/06/10 12:44:52;;;;;;;5.40;3.67;;;27.50;99.90;;;;;;5051603;28;20182;-66
2022/06/10 12:47:33;;;;;;;6.78;3.47;;;27.60;99.90;;;;;;5051327;28;20371;-66
2022/06/10 12:50:03;;;;;;;7.22;3.58;;;27.70;99.90;;;;;;5063158;28;20193;-64
2022/06/10 12:52:38;;;;;;;5.20;3.65;;;28.10;99.90;;;;;;5055327;28;20273;-66
2022/06/10 12:55:22;;;;;;;4.82;3.35;;;28.40;99.90;;;;;;5033881;28;20181;-65
2022/06/10 12:57:49;;;;;;;3.75;3.42;;;28.90;99.90;;;;;;5037741;28;20186;-65
2022/06/10 13:00:34;;;;;;;4.40;3.13;;;29.10;99.90;;;;;;5051278;28;20183;-65
2022/06/10 13:03:11;;;;;;;6.30;3.58;;;29.40;99.90;;;;;;5062345;28;20178;-64
2022/06/10 13:05:37;;;;;;;3.67;3.03;;;29.60;99.90;;;;;;5071385;28;20170;-66
2022/06/10 13:08:34;;;;;;;5.20;3.28;;;29.60;99.90;;;;;;5060199;28;20203;-64
2022/06/10 13:11:02;;;;;;;5.32;3.33;;;29.70;99.90;;;;;;5051317;28;20210;-65
2022/06/10 13:13:28;;;;;;;3.47;3.10;;;29.90;99.90;;;;;;5065576;28;20648;-65
2022/06/10 13:16:15;;;;;;;3.30;3.00;;;29.60;99.90;;;;;;5071471;28;20253;-65
2022/06/10 13:18:53;;;;;;;3.78;3.38;;;29.70;99.90;;;;;;5056026;28;20175;-66
2022/06/10 13:21:29;;;;;;;3.95;3.20;;;29.90;99.90;;;;;;5055918;28;20205;-65
2022/06/10 13:24:12;;;;;;;3.35;3.15;;;30.00;99.90;;;;;;5072120;28;20173;-66
2022/06/10 13:26:38;;;;;;;4.38;3.95;;;29.70;99.90;;;;;;5075411;28;20676;-66